Marshfield, MA

3:15 AM EDT on September 17, 2019 (GMT -0400)
Marshfield

Weather History for KGHG - July, 2019

Change the Weather History Date:

Friday, July 26, 2019

  Actual Average (KPYM) Record (KPYM)
Temperature  
Mean Temperature 70 °F -  
Max Temperature 80 °F 82 °F 97 °F (1965)
Min Temperature 59 °F 60 °F 47 °F (1984)
Cooling Degree Days 4    
Growing Degree Days 20 (Base 50)    
Moisture  
Dew Point 64 °F    
Average Humidity 78    
Maximum Humidity 100    
Minimum Humidity 58    
Precipitation  
Precipitation 0.00 in - - ()
Sea Level Pressure  
Sea Level Pressure 30.24 in    
Wind  
Wind Speed 3 mph (SSE)    
Max Wind Speed 10 mph    
Max Gust Speed 14 mph    
Visibility 10 miles    
Events      
Averages and records for this station are not official NWS values.
T = Trace of Precipitation, MM = Missing Value Source: NWS Daily Summary

Daily Weather History Graph

Daily Weather History Graph

Search for Another Location

Airport or City:

Astronomy

Jul. 26, 2019 Rise Set
Actual Time 5:29 AM EDT 8:08 PM EDT
Civil Twilight 4:57 AM EDT 8:40 PM EDT
Nautical Twilight 4:16 AM EDT 9:20 PM EDT
Astronomical Twilight 3:30 AM EDT 10:06 PM EDT
Moon 12:43 AM EDT (7/26) 2:48 PM EDT (7/26)
Length of Visible Light 15h 42m
Length of Day
14h 38m
Waning Crescent, 34% of the Moon is Illuminated
Jul 26
Waning Crescent
Jul 31
New
Aug 7
First Quarter
Aug 15
Full
Aug 23
Last Quarter

Hourly Weather History & Observations

Time (EDT) Temp. Heat Index Dew Point Humidity Pressure Visibility Wind Dir Wind Speed Gust Speed Precip Events Conditions
12:15 AM 64.4 °F - 62.6 °F 94% 30.16 in 10.0 mi Calm Calm - N/A   Clear
12:35 AM 64.4 °F - 62.6 °F 94% 30.16 in 10.0 mi Calm Calm - N/A   Clear
12:55 AM 62.6 °F - 62.6 °F 100% 30.16 in 10.0 mi Calm Calm - N/A   Clear
1:15 AM 62.6 °F - 62.6 °F 100% 30.17 in 10.0 mi SW 3.5 mph - N/A   Clear
1:35 AM 62.6 °F - 62.6 °F 100% 30.17 in 10.0 mi Calm Calm - N/A   Clear
1:55 AM 62.6 °F - 62.6 °F 100% 30.17 in 10.0 mi Calm Calm - N/A   Clear
2:15 AM 62.6 °F - 62.6 °F 100% 30.18 in 10.0 mi Calm Calm - N/A   Clear
2:35 AM 62.6 °F - 62.6 °F 100% 30.18 in 10.0 mi Calm Calm - N/A   Clear
2:55 AM 60.8 °F - 60.8 °F 100% 30.18 in 10.0 mi Calm Calm - N/A   Clear
3:15 AM 60.8 °F - 60.8 °F 100% 30.18 in 10.0 mi Calm Calm - N/A   Clear
3:35 AM 60.8 °F - 60.8 °F 100% 30.18 in 10.0 mi Calm Calm - N/A   Clear
3:55 AM 60.8 °F - 60.8 °F 100% 30.19 in 10.0 mi Calm Calm - N/A   Clear
4:15 AM 60.8 °F - 60.8 °F 100% 30.19 in 10.0 mi Calm Calm - N/A   Clear
4:35 AM 60.8 °F - 60.8 °F 100% 30.20 in 10.0 mi Calm Calm - N/A   Clear
4:55 AM 60.8 °F - 60.8 °F 100% 30.20 in 10.0 mi Calm Calm - N/A   Clear
5:15 AM 60.8 °F - 60.8 °F 100% 30.20 in 10.0 mi Calm Calm - N/A   Clear
5:35 AM 59.0 °F - 59.0 °F 100% 30.21 in 10.0 mi Calm Calm - N/A   Clear
5:55 AM 60.8 °F - 60.8 °F 100% 30.21 in 10.0 mi Calm Calm - N/A   Clear
6:15 AM 60.8 °F - 60.8 °F 100% 30.21 in 10.0 mi Calm Calm - N/A   Clear
6:35 AM 64.4 °F - 64.4 °F 100% 30.22 in 10.0 mi Calm Calm - N/A   Clear
6:55 AM 66.2 °F - 66.2 °F 100% 30.23 in 10.0 mi West 3.5 mph - N/A   Clear
7:15 AM 68.0 °F - 66.2 °F 94% 30.23 in 10.0 mi West 3.5 mph - N/A   Clear
7:35 AM 69.8 °F - 66.2 °F 88% 30.24 in 10.0 mi WSW 4.6 mph - N/A   Clear
7:55 AM 71.6 °F - 66.2 °F 83% 30.24 in 10.0 mi Calm Calm - N/A   Clear
8:15 AM 73.4 °F - 66.2 °F 78% 30.25 in 10.0 mi Calm Calm - N/A   Clear
8:35 AM 73.4 °F - 66.2 °F 78% 30.25 in 10.0 mi Calm Calm - N/A   Clear
8:55 AM 75.2 °F - 66.2 °F 73% 30.25 in 10.0 mi Calm Calm - N/A   Clear
9:15 AM 77.0 °F - 66.2 °F 69% 30.25 in 10.0 mi ENE 3.5 mph - N/A   Clear
9:35 AM 77.0 °F - 68.0 °F 74% 30.25 in 10.0 mi NE 5.8 mph - N/A   Clear
9:55 AM 77.0 °F - 66.2 °F 69% 30.26 in 10.0 mi ENE 4.6 mph - N/A   Clear
10:15 AM 77.0 °F - 66.2 °F 69% 30.26 in 10.0 mi ENE 6.9 mph - N/A   Clear
10:35 AM 77.0 °F - 66.2 °F 69% 30.27 in 10.0 mi ENE 4.6 mph - N/A   Clear
10:55 AM 77.0 °F - 66.2 °F 69% 30.27 in 10.0 mi ENE 6.9 mph - N/A   Clear
11:15 AM 77.0 °F - 68.0 °F 74% 30.26 in 10.0 mi ENE 6.9 mph - N/A   Clear
11:35 AM 77.0 °F - 68.0 °F 74% 30.26 in 10.0 mi NE 6.9 mph - N/A   Clear
11:55 AM 78.8 °F - 68.0 °F 69% 30.26 in 10.0 mi ENE 5.8 mph - N/A   Clear
12:15 PM 78.8 °F - 68.0 °F 69% 30.26 in 10.0 mi Variable 4.6 mph - N/A   Clear
12:35 PM 78.8 °F - 68.0 °F 69% 30.26 in 10.0 mi East 8.1 mph - N/A   Clear
12:55 PM 78.8 °F - 68.0 °F 69% 30.26 in 10.0 mi SE 9.2 mph - N/A   Clear
1:15 PM 78.8 °F - 68.0 °F 69% 30.25 in 10.0 mi ESE 10.4 mph - N/A   Clear
1:35 PM 78.8 °F - 68.0 °F 69% 30.25 in 10.0 mi SE 6.9 mph - N/A   Clear
1:55 PM 78.8 °F - 69.8 °F 74% 30.25 in 10.0 mi SE 8.1 mph 13.8 mph N/A   Clear
2:15 PM 80.6 °F 83.2 °F 68.0 °F 65% 30.25 in 10.0 mi East 8.1 mph - N/A   Clear
2:35 PM 80.6 °F 82.7 °F 66.2 °F 61% 30.25 in 10.0 mi SE 10.4 mph - N/A   Clear
2:55 PM 80.6 °F 82.7 °F 66.2 °F 61% 30.25 in 10.0 mi Variable 6.9 mph 13.8 mph N/A   Clear
3:15 PM 80.6 °F 82.7 °F 66.2 °F 61% 30.24 in 10.0 mi SE 8.1 mph - N/A   Clear
3:35 PM 80.6 °F 82.7 °F 66.2 °F 61% 30.24 in 10.0 mi SE 6.9 mph 13.8 mph N/A   Clear
3:55 PM 80.6 °F 82.7 °F 66.2 °F 61% 30.25 in 10.0 mi SE 9.2 mph - N/A   Clear
4:15 PM 80.6 °F 82.7 °F 66.2 °F 61% 30.24 in 10.0 mi SE 10.4 mph - N/A   Clear
4:35 PM 80.6 °F 82.7 °F 66.2 °F 61% 30.24 in 10.0 mi SE 8.1 mph - N/A   Clear
4:55 PM 80.6 °F 82.7 °F 66.2 °F 61% 30.24 in 10.0 mi SSE 9.2 mph - N/A   Clear
5:15 PM 80.6 °F 82.7 °F 66.2 °F 61% 30.24 in 10.0 mi SE 9.2 mph - N/A   Clear
5:35 PM 78.8 °F - 66.2 °F 65% 30.24 in 10.0 mi SE 8.1 mph 13.8 mph N/A   Clear
5:55 PM 80.6 °F 82.7 °F 66.2 °F 61% 30.24 in 10.0 mi SE 6.9 mph - N/A   Clear
6:15 PM 80.6 °F 82.7 °F 66.2 °F 61% 30.24 in 10.0 mi South 9.2 mph - N/A   Clear
6:35 PM 80.6 °F 82.3 °F 64.4 °F 58% 30.25 in 10.0 mi South 8.1 mph - N/A   Clear
6:55 PM 78.8 °F - 64.4 °F 61% 30.25 in 10.0 mi South 9.2 mph - N/A   Clear
7:15 PM 78.8 °F - 64.4 °F 61% 30.26 in 10.0 mi South 5.8 mph - N/A   Clear
7:35 PM 77.0 °F - 64.4 °F 65% 30.26 in 10.0 mi South 5.8 mph - N/A   Clear
7:55 PM 75.2 °F - 64.4 °F 69% 30.27 in 10.0 mi South 5.8 mph - N/A   Clear
8:15 PM 73.4 °F - 62.6 °F 69% 30.27 in 10.0 mi SSW 8.1 mph - N/A   Clear
8:35 PM 73.4 °F - 62.6 °F 69% 30.27 in 10.0 mi SSW 8.1 mph - N/A   Clear
8:55 PM 71.6 °F - 62.6 °F 73% 30.28 in 10.0 mi Variable 4.6 mph - N/A   Clear
9:15 PM 71.6 °F - 62.6 °F 73% 30.29 in 10.0 mi SSW 6.9 mph - N/A   Clear
9:35 PM 69.8 °F - 60.8 °F 73% 30.29 in 10.0 mi SSW 5.8 mph 11.5 mph N/A   Clear
9:55 PM 69.8 °F - 60.8 °F 73% 30.29 in 10.0 mi Calm Calm - N/A   Clear
10:15 PM 68.0 °F - 60.8 °F 78% 30.29 in 10.0 mi Variable 3.5 mph - N/A   Clear
10:35 PM 68.0 °F - 59.0 °F 73% 30.29 in 10.0 mi SSW 3.5 mph - N/A   Clear
10:55 PM 68.0 °F - 60.8 °F 78% 30.29 in 10.0 mi SW 3.5 mph - N/A   Clear
11:15 PM 68.0 °F - 59.0 °F 73% 30.29 in 10.0 mi SW 3.5 mph - N/A   Clear
11:35 PM 68.0 °F - 59.0 °F 73% 30.29 in 10.0 mi Calm Calm - N/A   Clear
11:55 PM 66.2 °F - 60.8 °F 83% 30.29 in 10.0 mi Calm Calm - N/A   Clear